Thunder radar more information blitzortung!


Radar de pluja more information rain snow radar


Visita la nostra xarxa de llocs de meteo:

Template documentation
and downloads

And another site



No particular awareness of the weather is required.    There are no Weather-warnings

Pagina Historial Weather Underground text

Diari Resum Marc 20, 2016 Unitats:  Mètric    Imperial   Tant
« Previous Dia
SegĂźent Dia »
Diari Setmana Mensual Anual Personalitzada
  Maxima: Minima: Media:
Temperatura: -17.8 °C -13.2 °C -11.1 °C
Punt de rosada: -17.8 °C -14.3 °C -13.1 °C
Humitat: Humidity % 63 % 79 %
Wind Speed: 0 km/h 0 km/h 8 km/h
RĂ fegues de vent: 0 km/h - -
Vent:- - East
Pression baro: 0 hPa 34293.4 hPa -
Precipitacions: 276.86 mm    
Historical Graphs
 
 
Dades de taula per Marc 20, 2016
Temps Temperatura Punt de rosada Pression baro Vent Wind Speed RĂ fegues de vent Humitat Rainfall Rate (Hourly)
-17.8 °C -17.8 °C 0 hPa Calm     Humidity % 0 mm
00:00 -13.2 °C -14.2 °C 34361.1 hPa NE 5.1 km/h 7.7 km/h 88 % 0 mm
00:10 -13.2 °C -14.2 °C 34361.1 hPa NNE 2.6 km/h 5.1 km/h 88 % 0 mm
00:20 -13.2 °C -14.3 °C 34361.1 hPa North 5.1 km/h 7.7 km/h 88 % 0 mm
00:30 -13.2 °C -14.3 °C 34361.1 hPa NNE 2.6 km/h 10.3 km/h 88 % 0 mm
00:40 -13.2 °C -14.2 °C 34361.1 hPa NNE 7.7 km/h 12.9 km/h 88 % 0 mm
00:50 -13.2 °C -14.3 °C 34361.1 hPa NNE 7.7 km/h 15.6 km/h 87 % 0 mm
01:00 -13.2 °C -14.2 °C 34361.1 hPa NNE 2.6 km/h 2.6 km/h 88 % 0 mm
01:10 -13.2 °C -14.2 °C 34361.1 hPa NNE 7.7 km/h 12.9 km/h 88 % 0 mm
01:20 -13.1 °C -14.3 °C 34361.1 hPa NE 5.1 km/h 7.7 km/h 87 % 0 mm
01:30 -13.2 °C -14.3 °C 34361.1 hPa NE 5.1 km/h 5.1 km/h 87 % 0 mm
01:40 -13.2 °C -14.3 °C 34395 hPa NE 2.6 km/h 7.7 km/h 87 % 0 mm
01:50 -13.2 °C -14.3 °C 34395 hPa Calm     87 % 0 mm
02:00 -13.2 °C -14.2 °C 34395 hPa Calm     88 % 0 mm
02:10 -13.1 °C -14.1 °C 34395 hPa Calm     89 % 0 mm
02:20 -13.1 °C -14.1 °C 34395 hPa NE 2.6 km/h 5.1 km/h 89 % 0 mm
02:30 -13 °C -13.9 °C 34395 hPa Calm     89 % 0 mm
02:40 -12.9 °C -13.8 °C 34361.1 hPa Calm     90 % 0 mm
02:50 -12.9 °C -13.8 °C 34361.1 hPa Calm     90 % 0 mm
03:00 -12.8 °C -13.7 °C 34395 hPa Calm     90 % 0 mm
03:10 -12.7 °C -13.7 °C 34395 hPa Calm   5.1 km/h 89 % 0 mm
03:20 -12.7 °C -13.6 °C 34395 hPa Calm   2.6 km/h 89 % 0 mm
03:30 -12.6 °C -13.6 °C 34395 hPa Calm   7.7 km/h 89 % 0 mm
03:40 -12.6 °C -13.5 °C 34395 hPa Calm     89 % 0 mm
03:50 -12.3 °C -13.3 °C 34395 hPa Calm     89 % 0 mm
04:00 -12.2 °C -13.3 °C 34395 hPa North 7.7 km/h 10.3 km/h 88 % 0 mm
04:10 -12 °C -13.2 °C 34395 hPa NE 2.6 km/h 7.7 km/h 87 % 0 mm
04:20 -11.9 °C -13.2 °C 34395 hPa NE 7.7 km/h 7.7 km/h 86 % 0 mm
04:30 -11.6 °C -12.9 °C 34395 hPa NE 5.1 km/h 7.7 km/h 85 % 0 mm
10:41 -11.3 °C -12.9 °C 34395 hPa NE 9 km/h 9 km/h 83 % 0 mm
10:46 -11.3 °C -12.8 °C 34395 hPa NNE 9 km/h 9 km/h 83 % 0 mm
10:51 -10.9 °C -12.6 °C 34395 hPa NE 11.9 km/h 11.9 km/h 82 % 0 mm
10:56 -10.9 °C -12.7 °C 34395 hPa NNE 9.3 km/h 9.3 km/h 81 % 0 mm
11:06 -11 °C -12.9 °C 34395 hPa ENE 6 km/h 6 km/h 80 % 0 mm
11:11 -11 °C -12.9 °C 34361.1 hPa ESE 11.9 km/h 11.9 km/h 80 % 0 mm
11:16 -11 °C -12.9 °C 34361.1 hPa ESE 11.9 km/h 11.9 km/h 80 % 0 mm
11:21 -11 °C -12.9 °C 34361.1 hPa NNE 11.9 km/h 11.9 km/h 80 % 0 mm
11:26 -10.6 °C -12.6 °C 34395 hPa ESE 15 km/h 15 km/h 79 % 0 mm
11:31 -10.4 °C -12.3 °C 34395 hPa ESE 11.9 km/h 11.9 km/h 80 % 0 mm
11:36 -10.3 °C -12.3 °C 34395 hPa NNW 6.3 km/h 6.3 km/h 79 % 0 mm
11:41 -10.3 °C -12.3 °C 34395 hPa ESE 23.8 km/h 23.8 km/h 79 % 0 mm
11:46 -10.3 °C -12.3 °C 34395 hPa ENE 9.3 km/h 9.3 km/h 79 % 0 mm
11:51 -10.3 °C -12.4 °C 34395 hPa NE 9 km/h 9 km/h 78 % 0 mm
11:56 -10.3 °C -12.4 °C 34395 hPa NNE 15 km/h 15 km/h 78 % 0 mm
12:01 -10.2 °C -12.3 °C 34395 hPa ESE 17.9 km/h 17.9 km/h 78 % 0 mm
12:06 -10.3 °C -12.4 °C 34395 hPa ENE 11.9 km/h 11.9 km/h 78 % 0 mm
12:11 -10.3 °C -12.4 °C 34395 hPa ESE 15 km/h 15 km/h 78 % 0 mm
12:16 -10.3 °C -12.6 °C 34395 hPa NNE 9 km/h 9.8 km/h 77 % 0 mm
12:21 -10.3 °C -12.6 °C 34395 hPa ESE 16.1 km/h 16.1 km/h 77 % 0 mm
12:26 -10.2 °C -12.4 °C 34395 hPa ENE 17.9 km/h 17.9 km/h 77 % 0 mm
12:28 -10.2 °C -12.4 °C 34395 hPa NNE 15 km/h 15 km/h 77 % 0 mm
12:33 -10 °C -12.3 °C 34395 hPa ENE 11.9 km/h 11.9 km/h 76 % 0 mm
12:38 -9.9 °C -12.3 °C 34395 hPa East 17.9 km/h 17.9 km/h 76 % 0 mm
12:43 -9.6 °C -11.8 °C 34395 hPa WSW 9 km/h 9 km/h 77 % 0 mm
12:48 -9.3 °C -11.7 °C 34395 hPa ESE 17.9 km/h 17.9 km/h 75 % 0 mm
12:53 -9.4 °C -11.9 °C 34395 hPa ENE 16.6 km/h 16.6 km/h 74 % 0 mm
12:58 -9.4 °C -11.9 °C 34395 hPa East 9 km/h 9 km/h 74 % 0 mm
13:03 -9.3 °C -12 °C 34395 hPa ESE 15 km/h 15 km/h 73 % 0 mm
13:13 -9.3 °C -12.1 °C 34395 hPa ESE 12.7 km/h 12.7 km/h 72 % 0 mm
13:18 -9.3 °C -12.2 °C 34395 hPa South 20.9 km/h 20.9 km/h 71 % 0 mm
13:23 -9.1 °C -12.1 °C 34395 hPa ESE 15 km/h 15 km/h 71 % 0 mm
13:28 -8.9 °C -11.8 °C 34395 hPa West 15 km/h 15 km/h 71 % 0 mm
13:33 -8.7 °C -11.9 °C 34395 hPa East 20.9 km/h 20.9 km/h 69 % 0 mm
13:38 -8.9 °C -12.2 °C 34361.1 hPa ESE 9.8 km/h 9.8 km/h 68 % 0 mm
13:43 -9.1 °C -12.4 °C 34361.1 hPa ENE 20.9 km/h 20.9 km/h 68 % 0 mm
13:48 -9.1 °C -12.4 °C 34361.1 hPa ESE 29.8 km/h 29.8 km/h 68 % 0 mm
13:53 -8.9 °C -12.2 °C 34361.1 hPa NNE 15 km/h 15 km/h 68 % 0 mm
13:58 -8.8 °C -12.3 °C 34361.1 hPa ESE 16.6 km/h 16.6 km/h 67 % 0 mm
14:08 -8.9 °C -12.4 °C 34361.1 hPa ESE 17.9 km/h 17.9 km/h 66 % 0 mm
14:13 -8.8 °C -12.4 °C 34361.1 hPa ESE 6.3 km/h 6.3 km/h 66 % 0 mm
14:18 -8.8 °C -12.5 °C 34361.1 hPa East 15 km/h 15 km/h 65 % 0 mm
14:23 -9 °C -12.7 °C 34327.3 hPa WNW 15 km/h 15 km/h 65 % 0 mm
14:28 -9.1 °C -12.8 °C 34327.3 hPa ENE 17.9 km/h 17.9 km/h 64 % 0 mm
14:38 -8.9 °C -12.6 °C 34327.3 hPa ESE 17.9 km/h 17.9 km/h 65 % 0 mm
14:48 -8.9 °C -12.6 °C 34327.3 hPa ESE 11.9 km/h 11.9 km/h 65 % 0 mm
14:53 -8.8 °C -12.4 °C 34327.3 hPa East 6 km/h 6 km/h 66 % 0 mm
14:58 -8.8 °C -12.4 °C 34327.3 hPa NE 9 km/h 9 km/h 65 % 251.46 mm
15:03 -8.4 °C -12.4 °C 34327.3 hPa ENE 7.6 km/h 7.6 km/h 63 % 251.46 mm
15:08 -8.6 °C -12.3 °C 34327.3 hPa ESE 15 km/h 15 km/h 64 % 251.46 mm
15:13 -8.7 °C -12.4 °C 34327.3 hPa East 26.9 km/h 26.9 km/h 64 % 251.46 mm
15:23 -8.7 °C -12.5 °C 34327.3 hPa ESE 26.9 km/h 26.9 km/h 64 % 251.46 mm
15:28 -8.7 °C -12.7 °C 34327.3 hPa ESE 15 km/h 15 km/h 63 % 251.46 mm
15:33 -8.8 °C -12.6 °C 34327.3 hPa ESE 17.9 km/h 17.9 km/h 64 % 251.46 mm
15:38 -9 °C -12.7 °C 34327.3 hPa SSE 11.9 km/h 11.9 km/h 65 % 251.46 mm
15:43 -9.1 °C -12.6 °C 34327.3 hPa SE 23.8 km/h 23.8 km/h 66 % 251.46 mm
15:48 -9.2 °C -12.7 °C 34327.3 hPa South 11.9 km/h 14 km/h 66 % 251.46 mm
15:53 -9.2 °C -12.7 °C 34327.3 hPa East 20.9 km/h 20.9 km/h 66 % 251.46 mm
15:58 -9.3 °C -12.7 °C 34327.3 hPa SW 15 km/h 15 km/h 67 % 0 mm
16:03 -9.3 °C -12.7 °C 34327.3 hPa ENE 9 km/h 9 km/h 67 % 0 mm
16:08 -9.4 °C -12.8 °C 34327.3 hPa SSW 15 km/h 15 km/h 67 % 0 mm
16:13 -9.3 °C -12.6 °C 34327.3 hPa SSW 6.3 km/h 6.3 km/h 68 % 0 mm
16:18 -9.3 °C -12.7 °C 34327.3 hPa East 17.9 km/h 17.9 km/h 67 % 0 mm
16:23 -9.4 °C -12.7 °C 34327.3 hPa SE 15 km/h 15 km/h 68 % 0 mm
16:28 -9.4 °C -12.6 °C 34327.3 hPa ENE 17.9 km/h 17.9 km/h 69 % 0 mm
16:38 -9.6 °C -12.7 °C 34327.3 hPa ESE 22.5 km/h 22.5 km/h 69 % 0 mm
16:43 -9.7 °C -12.8 °C 34327.3 hPa ESE 15 km/h 15 km/h 69 % 0 mm
16:48 -9.7 °C -12.8 °C 34327.3 hPa ESE 11.9 km/h 11.9 km/h 69 % 0 mm
16:53 -9.8 °C -12.9 °C 34327.3 hPa SE 17.9 km/h 17.9 km/h 69 % 0 mm
16:58 -9.8 °C -12.8 °C 34327.3 hPa SE 29.8 km/h 29.8 km/h 70 % 0 mm
17:03 -9.9 °C -12.9 °C 34327.3 hPa ESE 20.9 km/h 20.9 km/h 70 % 0 mm
17:08 -10.1 °C -12.9 °C 34327.3 hPa ESE 11.9 km/h 11.9 km/h 71 % 0 mm
17:13 -10.1 °C -12.9 °C 34327.3 hPa ENE 9 km/h 9 km/h 72 % 0 mm
17:18 -10.2 °C -12.9 °C 34327.3 hPa East 9 km/h 9 km/h 73 % 0 mm
17:23 -10.2 °C -12.9 °C 34293.4 hPa ESE 9 km/h 9 km/h 73 % 0 mm
17:28 -10.2 °C -12.9 °C 34293.4 hPa NE 6 km/h 6 km/h 73 % 0 mm
17:33 -10.3 °C -12.8 °C 34293.4 hPa NNE 6.3 km/h 6.3 km/h 74 % 0 mm
17:38 -10.3 °C -12.8 °C 34327.3 hPa NNE 9 km/h 9 km/h 74 % 0 mm
17:43 -10.3 °C -12.9 °C 34327.3 hPa NE 6 km/h 6 km/h 74 % 0 mm
17:48 -10.4 °C -12.8 °C 34327.3 hPa ENE 6 km/h 6 km/h 75 % 0 mm
17:53 -10.4 °C -12.7 °C 34327.3 hPa ENE 9 km/h 9 km/h 76 % 0 mm
18:03 -10.6 °C -12.8 °C 34327.3 hPa ENE 11.9 km/h 11.9 km/h 77 % 0 mm
18:08 -10.7 °C -12.9 °C 34327.3 hPa NE 9 km/h 9 km/h 77 % 0 mm
18:13 -10.8 °C -12.9 °C 34327.3 hPa ENE 6 km/h 6 km/h 78 % 0 mm
18:18 -10.9 °C -12.9 °C 34327.3 hPa NNE 6 km/h 6 km/h 79 % 25.4 mm
18:23 -11 °C -12.9 °C 34361.1 hPa NNE 15.6 km/h 15.6 km/h 79 % 25.4 mm
18:28 -11.1 °C -13 °C 34361.1 hPa NNE 15 km/h 15 km/h 79 % 25.4 mm
18:33 -11.1 °C -12.9 °C 34361.1 hPa NNE 11.9 km/h 11.9 km/h 80 % 25.4 mm
18:38 -11.1 °C -12.9 °C 34361.1 hPa NNW 9.3 km/h 9.3 km/h 80 % 25.4 mm
18:43 -11.2 °C -13 °C 34361.1 hPa NNE 11.9 km/h 12.2 km/h 80 % 25.4 mm
18:48 -11.3 °C -13.1 °C 34361.1 hPa NNE 11.9 km/h 11.9 km/h 80 % 25.4 mm
18:53 -11.3 °C -13.1 °C 34361.1 hPa North 9 km/h 9 km/h 80 % 25.4 mm
18:58 -11.3 °C -13 °C 34361.1 hPa NNE 9 km/h 9 km/h 81 % 25.4 mm
19:03 -11.3 °C -13 °C 34361.1 hPa ENE 6 km/h 6 km/h 81 % 25.4 mm
19:13 -11.3 °C -13.1 °C 34361.1 hPa Calm     81 % 25.4 mm
19:18 -11.4 °C -13.2 °C 34361.1 hPa Calm     81 % 0 mm
19:23 -11.4 °C -13.2 °C 34361.1 hPa Calm     81 % 0 mm
19:28 -11.4 °C -13.3 °C 34361.1 hPa Calm     80 % 0 mm
19:33 -11.6 °C -13.4 °C 34361.1 hPa SW 6 km/h 6 km/h 80 % 0 mm
19:38 -11.6 °C -13.4 °C 34361.1 hPa SW 6 km/h 6 km/h 80 % 0 mm
19:43 -11.7 °C -13.3 °C 34361.1 hPa Calm     82 % 0 mm
19:48 -11.8 °C -13.4 °C 34361.1 hPa Calm     82 % 0 mm
19:53 -11.7 °C -13.3 °C 34361.1 hPa NNW 3.1 km/h 3.1 km/h 83 % 0 mm
19:58 -11.8 °C -13.3 °C 34361.1 hPa Calm     83 % 0 mm
20:03 -11.8 °C -13.3 °C 34361.1 hPa Calm     83 % 0 mm
20:08 -11.8 °C -13.4 °C 34361.1 hPa North 3.1 km/h 3.1 km/h 83 % 0 mm
20:13 -11.9 °C -13.3 °C 34361.1 hPa NE 6 km/h 6 km/h 84 % 0 mm
20:18 -11.9 °C -13.3 °C 34361.1 hPa NE 6 km/h 6 km/h 84 % 0 mm
20:23 -11.9 °C -13.4 °C 34361.1 hPa NE 3.1 km/h 3.1 km/h 84 % 0 mm
20:28 -12 °C -13.4 °C 34361.1 hPa Calm     84 % 0 mm
20:33 -12.1 °C -13.5 °C 34361.1 hPa WNW 6 km/h 6 km/h 84 % 0 mm
20:38 -12.1 °C -13.6 °C 34395 hPa Calm     84 % 0 mm
20:43 -12.1 °C -13.6 °C 34395 hPa Calm     84 % 0 mm
20:48 -12.2 °C -13.6 °C 34395 hPa Calm     84 % 0 mm
20:53 -12.2 °C -13.7 °C 34361.1 hPa Calm     84 % 0 mm
20:58 -12.2 °C -13.7 °C 34361.1 hPa Calm     84 % 0 mm
21:03 -12.3 °C -13.7 °C 34361.1 hPa Calm     84 % 0 mm
21:13 -12.2 °C -13.6 °C 34395 hPa NNE 6 km/h 6 km/h 85 % 0 mm
21:18 -12.2 °C -13.6 °C 34395 hPa Calm     85 % 0 mm
21:23 -12.2 °C -13.6 °C 34395 hPa Calm     85 % 0 mm
21:33 -12.2 °C -13.6 °C 34395 hPa WNW 3.1 km/h 3.1 km/h 85 % 0 mm
21:38 -12.2 °C -13.6 °C 34395 hPa Calm     85 % 0 mm
21:43 -12.2 °C -13.6 °C 34395 hPa Calm     85 % 0 mm
21:48 -12.2 °C -13.6 °C 34395 hPa Calm     85 % 0 mm
21:53 -12.2 °C -13.6 °C 34395 hPa NNE 6 km/h 6 km/h 85 % 0 mm
21:58 -12.3 °C -13.5 °C 34395 hPa Calm     86 % 0 mm
22:03 -12.3 °C -13.5 °C 34395 hPa Calm     86 % 0 mm
22:08 -12.3 °C -13.4 °C 34395 hPa Calm     87 % 0 mm
22:13 -12.3 °C -13.4 °C 34395 hPa Calm     87 % 0 mm
22:18 -12.3 °C -13.4 °C 34395 hPa Calm     87 % 0 mm
22:23 -12.3 °C -13.4 °C 34395 hPa Calm     87 % 0 mm
22:28 -12.2 °C -13.4 °C 34395 hPa Calm     87 % 0 mm
22:33 -12.2 °C -13.4 °C 34395 hPa Calm     87 % 0 mm
22:38 -12.2 °C -13.3 °C 34395 hPa Calm     87 % 0 mm
22:43 -12.2 °C -13.2 °C 34395 hPa Calm     88 % 0 mm
22:48 -12.1 °C -13.2 °C 34395 hPa Calm     88 % 0 mm
22:53 -12.1 °C -13.2 °C 34395 hPa Calm     88 % 0 mm
22:58 -12.1 °C -13.2 °C 34395 hPa Calm     88 % 0 mm
23:03 -12.1 °C -13.2 °C 34395 hPa Calm     88 % 0 mm
23:08 -12.1 °C -13.2 °C 34395 hPa Calm     88 % 0 mm
23:13 -12.2 °C -13.2 °C 34395 hPa Calm     88 % 0 mm
23:18 -12.1 °C -13.2 °C 34395 hPa Calm     88 % 0 mm
23:23 -12.1 °C -13.2 °C 34395 hPa Calm     88 % 0 mm
23:28 -12.2 °C -13.2 °C 34395 hPa Calm     88 % 0 mm
23:33 -12.2 °C -13.3 °C 34395 hPa Calm     88 % 0 mm
23:38 -12.2 °C -13.3 °C 34395 hPa Calm     88 % 0 mm
Meteo Sesrovires
Elogis d' Weather Underground - 2 mb

Guio original per  Jim McMurry - jmcmurry@mwt.net Adaptat per a la plantilla per  Wim van der Kuil - Leuven-Template.eu

Trobareu la nostra informacio del temps tambe a:

Weather Underground

AWEKAS